createdAt,value
2017-08-18T00:01:10.361Z,15.57
2017-08-18T00:03:38.656Z,16.57
2017-08-18T00:06:06.594Z,16.50
2017-08-18T00:08:34.100Z,23.17
2017-08-18T00:11:02.087Z,18.98
2017-08-18T00:13:33.635Z,13.67
2017-08-18T00:16:01.152Z,19.17
2017-08-18T00:18:28.736Z,19.10
2017-08-18T00:20:57.071Z,15.57
2017-08-18T00:23:24.677Z,18.00
2017-08-18T00:25:55.330Z,16.00
2017-08-18T00:28:22.838Z,14.03
2017-08-18T00:30:50.376Z,18.80
2017-08-18T00:33:18.194Z,18.33
2017-08-18T00:35:46.607Z,14.50
2017-08-18T00:38:14.115Z,17.87
2017-08-18T00:40:41.676Z,17.65
2017-08-18T00:43:09.192Z,19.70
2017-08-18T00:45:37.512Z,17.23
2017-08-18T00:48:05.700Z,17.15
2017-08-18T00:50:33.215Z,14.20
2017-08-18T00:53:01.561Z,15.13
2017-08-18T00:55:29.856Z,19.08
2017-08-18T00:57:57.367Z,17.83
2017-08-18T01:00:24.880Z,14.13
2017-08-18T01:02:53.208Z,16.73
2017-08-18T01:05:20.713Z,17.12
2017-08-18T01:07:48.270Z,16.58
2017-08-18T01:10:15.811Z,14.60
2017-08-18T01:12:48.055Z,13.55
2017-08-18T01:15:15.700Z,13.70
2017-08-18T01:17:43.215Z,15.58
2017-08-18T01:20:10.724Z,13.50
2017-08-18T01:22:38.862Z,14.27
2017-08-18T01:25:06.443Z,13.40
2017-08-18T01:27:33.951Z,18.37
2017-08-18T01:30:01.709Z,17.87
2017-08-18T01:32:29.379Z,17.57
2017-08-18T01:34:57.803Z,20.85
2017-08-18T01:37:25.394Z,21.10
2017-08-18T01:39:52.910Z,14.67
2017-08-18T01:42:20.418Z,17.70
2017-08-18T01:44:47.957Z,19.03
2017-08-18T01:47:15.592Z,20.60
2017-08-18T01:49:43.100Z,19.37
2017-08-18T01:52:12.176Z,17.27
2017-08-18T01:54:39.685Z,23.87
2017-08-18T01:57:10.179Z,17.60
2017-08-18T01:59:43.304Z,19.23
2017-08-18T02:02:10.860Z,17.27
2017-08-18T02:04:38.373Z,20.08
2017-08-18T02:07:06.850Z,16.20
2017-08-18T02:09:34.771Z,19.33
2017-08-18T02:12:02.299Z,15.70
2017-08-18T02:14:29.814Z,15.20
2017-08-18T02:17:01.786Z,15.90
2017-08-18T02:19:29.295Z,15.20
2017-08-18T02:21:57.023Z,13.27
2017-08-18T02:24:25.028Z,19.70
2017-08-18T02:26:52.541Z,12.97
2017-08-18T02:29:20.916Z,21.30
2017-08-18T02:31:48.589Z,18.83
2017-08-18T02:34:16.135Z,13.83
2017-08-18T02:36:43.644Z,13.23
2017-08-18T02:39:11.772Z,17.47
2017-08-18T02:41:41.184Z,16.70
2017-08-18T02:44:08.848Z,19.33
2017-08-18T02:46:36.464Z,16.73
2017-08-18T02:49:04.800Z,19.12
2017-08-18T02:51:32.313Z,13.87
2017-08-18T02:53:59.823Z,18.73
2017-08-18T02:56:27.372Z,17.63
2017-08-18T02:58:59.395Z,15.33
2017-08-18T03:01:27.671Z,22.50
2017-08-18T03:03:55.183Z,19.27
2017-08-18T03:06:22.780Z,14.07
2017-08-18T03:08:50.301Z,18.70
2017-08-18T03:11:17.810Z,17.30
2017-08-18T03:13:45.327Z,16.20
2017-08-18T03:16:14.255Z,16.85
2017-08-18T03:18:42.037Z,19.70
2017-08-18T03:21:09.815Z,16.60
2017-08-18T03:23:38.050Z,14.26
2017-08-18T03:26:05.560Z,15.80
2017-08-18T03:28:33.092Z,19.73
2017-08-18T03:31:00.610Z,14.40
2017-08-18T03:33:28.120Z,16.65
2017-08-18T03:35:55.666Z,20.30
2017-08-18T03:38:23.183Z,18.27
2017-08-18T03:40:50.799Z,18.33
2017-08-18T03:43:18.379Z,18.70
2017-08-18T03:45:50.526Z,17.00
2017-08-18T03:48:18.063Z,21.03
2017-08-18T03:50:46.362Z,19.50
2017-08-18T03:53:13.975Z,16.13
2017-08-18T03:55:42.214Z,24.80
2017-08-18T03:58:11.498Z,22.10
2017-08-18T04:00:39.080Z,17.93
2017-08-18T04:03:06.595Z,18.33
2017-08-18T04:05:34.148Z,19.20
2017-08-18T04:08:01.683Z,24.13
2017-08-18T04:10:29.283Z,17.33
2017-08-18T04:12:56.803Z,17.95
2017-08-18T04:15:27.984Z,16.90
2017-08-18T04:17:55.763Z,17.58
2017-08-18T04:20:23.819Z,22.57
2017-08-18T04:22:51.330Z,19.60
2017-08-18T04:25:19.497Z,18.83
2017-08-18T04:27:47.117Z,20.40
2017-08-18T04:30:14.672Z,21.17
2017-08-18T04:32:42.190Z,15.55
2017-08-18T04:35:09.717Z,18.10
2017-08-18T04:37:37.240Z,20.43
2017-08-18T04:40:04.783Z,18.73
2017-08-18T04:42:33.987Z,19.62
2017-08-18T04:45:05.027Z,21.10
2017-08-18T04:47:32.543Z,22.13
2017-08-18T04:50:00.063Z,18.42
2017-08-18T04:52:28.561Z,16.43
2017-08-18T04:54:56.077Z,18.83
2017-08-18T04:57:23.595Z,19.17
2017-08-18T04:59:51.103Z,18.30
2017-08-18T05:02:19.348Z,18.75
2017-08-18T05:04:47.580Z,12.80
2017-08-18T05:07:15.115Z,18.03
2017-08-18T05:09:42.666Z,12.55
2017-08-18T05:12:10.175Z,13.10
2017-08-18T05:14:37.818Z,18.50
2017-08-18T05:17:05.419Z,14.67
2017-08-18T05:19:32.988Z,14.70
2017-08-18T05:22:01.228Z,20.33
2017-08-18T05:24:28.788Z,16.63
2017-08-18T05:26:56.319Z,21.33
2017-08-18T05:29:23.841Z,14.20
2017-08-18T05:31:51.352Z,15.83
2017-08-18T05:34:18.863Z,23.10
2017-08-18T05:36:46.591Z,17.40
2017-08-18T05:39:15.081Z,18.08
2017-08-18T05:41:43.091Z,15.60
2017-08-18T05:44:10.666Z,19.15
2017-08-18T05:46:38.209Z,18.20
2017-08-18T05:49:05.720Z,20.27
2017-08-18T05:51:34.088Z,19.37
2017-08-18T05:54:01.621Z,17.10
2017-08-18T05:56:29.182Z,19.70
2017-08-18T05:58:56.719Z,19.70
2017-08-18T06:01:24.243Z,13.70
2017-08-18T06:03:51.768Z,18.70
2017-08-18T06:06:19.355Z,18.87
2017-08-18T06:08:47.548Z,26.83
2017-08-18T06:11:15.395Z,27.42
2017-08-18T06:13:43.854Z,23.65
2017-08-18T06:16:11.393Z,17.20
2017-08-18T06:18:38.916Z,22.73
2017-08-18T06:21:07.125Z,16.42
2017-08-18T06:23:34.809Z,18.73
2017-08-18T06:26:02.344Z,20.23
2017-08-18T06:28:30.007Z,23.20
2017-08-18T06:30:57.559Z,19.83
2017-08-18T06:33:25.071Z,15.83
2017-08-18T06:35:53.271Z,13.33
2017-08-18T06:38:20.823Z,17.30
2017-08-18T06:40:48.399Z,20.70
2017-08-18T06:43:16.288Z,13.30
2017-08-18T06:45:43.799Z,13.48
2017-08-18T06:48:15.327Z,16.13
2017-08-18T06:50:42.892Z,12.47
2017-08-18T06:53:10.423Z,17.03
2017-08-18T06:55:37.932Z,10.75
2017-08-18T06:58:05.469Z,13.45
2017-08-18T07:00:33.029Z,13.17
2017-08-18T07:03:00.543Z,19.00
2017-08-18T07:05:28.791Z,10.80
2017-08-18T07:07:56.330Z,12.32
2017-08-18T07:10:23.840Z,13.57
2017-08-18T07:12:51.621Z,17.00
2017-08-18T07:15:19.386Z,13.57
2017-08-18T07:17:50.535Z,13.63
2017-08-18T07:20:22.052Z,10.40
2017-08-18T07:22:49.570Z,12.00
2017-08-18T07:25:17.067Z,13.13
2017-08-18T07:27:44.611Z,11.50
2017-08-18T07:30:13.128Z,11.32
2017-08-18T07:32:40.638Z,10.70
2017-08-18T07:35:08.177Z,13.52
2017-08-18T07:37:35.706Z,10.57
2017-08-18T07:40:03.284Z,13.77
2017-08-18T07:42:30.928Z,10.53
2017-08-18T07:44:58.464Z,14.05
2017-08-18T07:47:26.906Z,10.93
2017-08-18T07:49:54.452Z,10.90
2017-08-18T07:52:21.992Z,13.18
2017-08-18T07:54:49.748Z,12.05
2017-08-18T07:57:17.515Z,10.73
2017-08-18T07:59:45.047Z,11.02
2017-08-18T08:02:13.362Z,14.43
2017-08-18T08:04:40.899Z,13.88
2017-08-18T08:07:08.451Z,10.85
2017-08-18T08:09:35.955Z,10.52
2017-08-18T08:12:03.815Z,11.25
2017-08-18T08:14:31.343Z,11.83
2017-08-18T08:16:59.769Z,9.93
2017-08-18T08:19:27.353Z,14.10
2017-08-18T08:21:55.075Z,12.20
2017-08-18T08:24:22.655Z,10.07
2017-08-18T08:26:50.215Z,11.10
2017-08-18T08:29:18.704Z,11.30
2017-08-18T08:31:46.208Z,11.60
2017-08-18T08:34:13.716Z,11.80
2017-08-18T08:36:41.220Z,9.43
2017-08-18T08:39:09.803Z,12.35
2017-08-18T08:41:38.307Z,9.30
2017-08-18T08:44:05.967Z,12.63
2017-08-18T08:46:33.503Z,13.25
2017-08-18T08:49:01.011Z,16.25
2017-08-18T08:51:28.675Z,10.00
2017-08-18T08:53:56.238Z,11.82
2017-08-18T08:56:23.799Z,10.70
2017-08-18T08:58:51.655Z,18.04
2017-08-18T09:01:19.162Z,12.90
2017-08-18T09:03:46.795Z,9.30
2017-08-18T09:06:14.308Z,9.52
2017-08-18T09:08:41.812Z,10.23
2017-08-18T09:11:09.427Z,11.75
2017-08-18T09:13:37.240Z,11.48
2017-08-18T09:16:05.160Z,10.90
2017-08-18T09:18:33.099Z,10.43
2017-08-18T09:21:00.607Z,11.10
2017-08-18T09:23:28.285Z,11.87
2017-08-18T09:25:56.100Z,12.90
2017-08-18T09:28:24.779Z,14.43
2017-08-18T09:30:52.295Z,11.02
2017-08-18T09:33:19.805Z,12.07
2017-08-18T09:35:50.552Z,8.77
2017-08-18T09:38:18.288Z,10.33
2017-08-18T09:40:45.802Z,10.53
2017-08-18T09:43:13.879Z,11.45
2017-08-18T09:45:41.387Z,7.00
2017-08-18T09:48:20.807Z,9.90
2017-08-18T09:51:00.964Z,9.23
2017-08-18T09:56:42.355Z,13.63
2017-08-18T09:59:10.788Z,6.78
2017-08-18T10:01:38.326Z,7.57
2017-08-18T10:04:05.843Z,7.93
2017-08-18T10:06:34.314Z,8.57
2017-08-18T10:09:01.820Z,8.87
2017-08-18T10:11:29.369Z,7.68
2017-08-18T10:13:56.872Z,8.70
2017-08-18T10:16:24.525Z,6.47
2017-08-18T10:18:52.277Z,8.57
2017-08-18T10:21:19.783Z,7.27
2017-08-18T10:23:47.761Z,6.88
2017-08-18T10:26:15.695Z,6.23
2017-08-18T10:28:43.200Z,7.30
2017-08-18T10:31:10.736Z,6.30
2017-08-18T10:33:38.354Z,4.32
2017-08-18T10:36:06.646Z,3.76
2017-08-18T10:38:34.319Z,6.03
2017-08-18T10:41:01.843Z,4.87
2017-08-18T10:43:29.347Z,8.00
2017-08-18T10:45:56.863Z,5.43
2017-08-18T10:48:24.368Z,7.03
2017-08-18T10:50:51.951Z,4.68
2017-08-18T10:53:19.451Z,5.22
2017-08-18T10:55:46.946Z,4.20
2017-08-18T10:58:14.979Z,6.20
2017-08-18T11:00:42.487Z,3.43
2017-08-18T11:03:09.996Z,3.40
2017-08-18T11:05:37.496Z,4.78
2017-08-18T11:08:05.104Z,4.93
2017-08-18T11:10:32.856Z,4.07
2017-08-18T11:13:00.362Z,5.03
2017-08-18T11:15:28.307Z,5.25
2017-08-18T11:17:55.821Z,3.90
2017-08-18T11:20:23.363Z,6.13
2017-08-18T11:22:51.700Z,5.13
2017-08-18T11:25:19.411Z,10.73
2017-08-18T11:27:47.766Z,5.05
2017-08-18T11:30:15.275Z,6.13
2017-08-18T11:32:42.792Z,7.40
2017-08-18T11:35:10.349Z,3.85
2017-08-18T11:37:37.851Z,4.53
2017-08-18T11:40:05.356Z,3.00
2017-08-18T11:42:32.872Z,4.17
2017-08-18T11:45:01.076Z,3.47
2017-08-18T11:47:28.689Z,5.00
2017-08-18T11:49:56.479Z,4.00
2017-08-18T11:52:23.983Z,3.73
2017-08-18T11:54:51.523Z,4.13
2017-08-18T11:57:19.024Z,3.57
2017-08-18T11:59:46.574Z,3.53
2017-08-18T12:02:15.154Z,4.22
2017-08-18T12:04:42.728Z,4.70
2017-08-18T12:07:14.811Z,2.53
2017-08-18T12:09:42.589Z,5.03
2017-08-18T12:12:10.146Z,6.53
2017-08-18T12:14:37.712Z,2.63
2017-08-18T12:17:05.231Z,4.13
2017-08-18T12:19:32.791Z,3.83
2017-08-18T12:22:01.072Z,3.93
2017-08-18T12:24:33.469Z,6.14
2017-08-18T12:27:01.147Z,4.63
2017-08-18T12:29:29.459Z,3.58
2017-08-18T12:31:57.009Z,3.67
2017-08-18T12:34:24.555Z,3.37
2017-08-18T12:36:52.090Z,5.35
2017-08-18T12:39:19.603Z,2.62
2017-08-18T12:41:47.187Z,3.87
2017-08-18T12:44:14.710Z,2.78
2017-08-18T12:46:42.229Z,2.40
2017-08-18T12:49:09.832Z,2.60
2017-08-18T12:51:37.344Z,4.07
2017-08-18T12:54:09.097Z,4.43
2017-08-18T12:56:36.594Z,3.40
2017-08-18T12:59:04.157Z,3.08
2017-08-18T13:01:32.667Z,4.25
2017-08-18T13:04:00.173Z,2.40
2017-08-18T13:06:27.685Z,2.33
2017-08-18T13:08:55.995Z,6.53
2017-08-18T13:11:23.599Z,1.83
2017-08-18T13:13:52.413Z,2.80
2017-08-18T13:16:19.917Z,3.05
2017-08-18T13:18:49.202Z,2.73
2017-08-18T13:21:17.248Z,2.47
2017-08-18T13:23:44.752Z,2.08
2017-08-18T13:26:12.264Z,3.23
2017-08-18T13:28:41.246Z,3.20
2017-08-18T13:31:09.511Z,3.12
2017-08-18T13:33:37.925Z,3.90
2017-08-18T13:36:06.592Z,4.93
2017-08-18T13:38:34.950Z,3.45
2017-08-18T13:41:02.766Z,3.10
2017-08-18T13:43:30.592Z,4.97
2017-08-18T13:45:58.913Z,2.97
2017-08-18T13:48:26.477Z,2.30
2017-08-18T13:50:55.063Z,3.12
2017-08-18T13:53:22.572Z,4.03
2017-08-18T13:55:50.847Z,3.13
2017-08-18T13:58:18.648Z,3.85
2017-08-18T14:00:46.256Z,2.22
2017-08-18T14:03:14.735Z,2.00
2017-08-18T14:05:42.818Z,3.30
2017-08-18T14:08:10.332Z,2.00
2017-08-18T14:10:38.980Z,2.55
2017-08-18T14:13:06.537Z,2.30
2017-08-18T14:15:34.047Z,3.83
2017-08-18T14:18:01.684Z,1.80
2017-08-18T14:20:29.189Z,3.97
2017-08-18T14:23:02.260Z,3.40
2017-08-18T14:25:46.891Z,4.28
2017-08-18T14:28:14.396Z,2.25
2017-08-18T14:30:41.912Z,4.83
2017-08-18T14:33:09.447Z,5.50
2017-08-18T14:35:37.231Z,4.43
2017-08-18T14:38:04.775Z,4.27
2017-08-18T14:40:32.299Z,5.03
2017-08-18T14:43:03.303Z,3.50
2017-08-18T14:45:30.811Z,5.17
2017-08-18T14:47:59.079Z,3.20
2017-08-18T14:50:26.843Z,5.53
2017-08-18T14:52:55.177Z,4.18
2017-08-18T14:55:22.684Z,4.60
2017-08-18T14:57:50.199Z,7.80
2017-08-18T15:00:19.032Z,5.93
2017-08-18T15:02:46.619Z,5.60
2017-08-18T15:05:14.388Z,4.87
2017-08-18T15:07:41.902Z,6.05
2017-08-18T15:10:09.411Z,6.60
2017-08-18T15:12:36.919Z,5.47
2017-08-18T15:15:04.429Z,5.32
2017-08-18T15:17:32.004Z,9.77
2017-08-18T15:19:59.576Z,8.55
2017-08-18T15:22:28.234Z,13.62
2017-08-18T15:24:55.785Z,6.70
2017-08-18T15:27:23.324Z,7.22
2017-08-18T15:29:50.912Z,6.10
2017-08-18T15:32:18.511Z,5.13
2017-08-18T15:34:47.259Z,6.80
2017-08-18T15:37:14.759Z,6.97
2017-08-18T15:39:42.287Z,5.67
2017-08-18T15:42:13.618Z,6.80
2017-08-18T15:44:41.744Z,9.70
2017-08-18T15:47:09.405Z,9.30
2017-08-18T15:49:37.225Z,10.07
2017-08-18T15:52:04.754Z,20.37
2017-08-18T15:54:32.287Z,7.93
2017-08-18T15:57:03.490Z,13.60
2017-08-18T15:59:31.945Z,12.00
2017-08-18T16:01:59.498Z,12.17
2017-08-18T16:04:27.338Z,11.77
2017-08-18T16:06:55.789Z,18.70
2017-08-18T16:09:23.349Z,21.35
2017-08-18T16:11:50.903Z,18.40
2017-08-18T16:14:22.852Z,16.10
2017-08-18T16:16:51.492Z,12.37
2017-08-18T16:19:19.047Z,15.67
2017-08-18T16:21:46.664Z,15.60
2017-08-18T16:24:14.211Z,15.83
2017-08-18T16:26:45.739Z,15.47
2017-08-18T16:29:13.279Z,19.77
2017-08-18T16:31:40.836Z,11.10
2017-08-18T16:34:08.355Z,6.65
2017-08-18T16:36:36.379Z,14.33
2017-08-18T16:39:03.881Z,11.90
2017-08-18T16:41:31.395Z,11.83
2017-08-18T16:43:59.515Z,21.46
2017-08-18T16:46:27.036Z,16.33
2017-08-18T16:48:54.599Z,10.80
2017-08-18T16:51:22.115Z,10.27
2017-08-18T16:53:49.663Z,4.53
2017-08-18T16:56:18.331Z,9.90
2017-08-18T16:58:45.837Z,3.53
2017-08-18T17:01:13.400Z,7.50
2017-08-18T17:03:40.951Z,4.27
2017-08-18T17:06:08.671Z,5.50
2017-08-18T17:08:36.180Z,4.50
2017-08-18T17:11:04.511Z,4.95
2017-08-18T17:13:32.985Z,4.10
2017-08-18T17:16:00.494Z,3.20
2017-08-18T17:18:28.151Z,9.20
2017-08-18T17:20:56.582Z,5.70
2017-08-18T17:23:24.089Z,15.45
2017-08-18T17:25:51.666Z,10.53
2017-08-18T17:28:23.871Z,8.30
2017-08-18T17:30:51.636Z,11.75
2017-08-18T17:33:19.131Z,9.33
2017-08-18T17:35:46.654Z,7.27
2017-08-18T17:38:14.159Z,4.30
2017-08-18T17:40:41.990Z,6.57
2017-08-18T17:43:16.743Z,6.30
2017-08-18T17:45:44.362Z,5.57
2017-08-18T17:48:12.055Z,6.63
2017-08-18T17:50:39.559Z,8.00
2017-08-18T17:53:07.151Z,8.80
2017-08-18T17:55:34.701Z,6.50
2017-08-18T17:58:05.232Z,7.00
2017-08-18T18:00:33.072Z,7.22
2017-08-18T18:03:00.691Z,8.00
2017-08-18T18:05:28.197Z,9.30
2017-08-18T18:07:55.769Z,4.10
2017-08-18T18:10:23.455Z,5.20
2017-08-18T18:12:51.144Z,2.73
2017-08-18T18:15:18.658Z,5.80
2017-08-18T18:17:46.235Z,3.00
2017-08-18T18:20:14.199Z,2.97
2017-08-18T18:22:41.997Z,2.63
2017-08-18T18:25:10.324Z,3.80
2017-08-18T18:27:38.822Z,4.20
2017-08-18T18:30:06.343Z,4.23
2017-08-18T18:32:34.236Z,1.83
2017-08-18T18:35:01.798Z,1.53
2017-08-18T18:37:29.311Z,1.73
2017-08-18T18:39:56.871Z,5.54
2017-08-18T18:42:24.420Z,1.05
2017-08-18T18:44:52.463Z,1.87
2017-08-18T18:47:20.219Z,2.33
2017-08-18T18:49:47.727Z,2.03
2017-08-18T18:52:15.240Z,1.10
2017-08-18T18:54:42.840Z,1.40
2017-08-18T18:57:10.422Z,1.92
2017-08-18T18:59:42.046Z,1.77
2017-08-18T19:02:09.591Z,1.10
2017-08-18T19:04:37.387Z,2.15
2017-08-18T19:07:04.892Z,1.97
2017-08-18T19:09:32.401Z,8.87
2017-08-18T19:12:00.831Z,8.93
2017-08-18T19:14:32.399Z,2.55
2017-08-18T19:16:59.910Z,2.70
2017-08-18T19:19:27.428Z,1.45
2017-08-18T19:21:56.827Z,2.23
2017-08-18T19:24:24.400Z,4.67
2017-08-18T19:26:51.956Z,2.62
2017-08-18T19:29:20.392Z,3.58
2017-08-18T19:31:47.931Z,4.47
2017-08-18T19:34:15.486Z,6.62
2017-08-18T19:36:42.992Z,5.20
2017-08-18T19:39:10.871Z,6.73
2017-08-18T19:41:38.707Z,14.27
2017-08-18T19:44:06.243Z,9.70
2017-08-18T19:46:34.223Z,6.40
2017-08-18T19:49:05.061Z,2.17
2017-08-18T19:51:32.672Z,8.75
2017-08-18T19:54:00.183Z,3.57
2017-08-18T19:56:27.704Z,3.83
2017-08-18T19:58:55.210Z,4.00
2017-08-18T20:01:23.496Z,5.07
2017-08-18T20:03:51.047Z,2.05
2017-08-18T20:06:18.799Z,4.00
2017-08-18T20:08:46.531Z,4.03
2017-08-18T20:11:14.083Z,8.40
2017-08-18T20:13:43.320Z,4.83
2017-08-18T20:16:10.840Z,3.90
2017-08-18T20:18:39.375Z,3.10
2017-08-18T20:21:08.416Z,3.97
2017-08-18T20:23:35.987Z,3.45
2017-08-18T20:26:03.492Z,3.60
2017-08-18T20:28:31.003Z,1.65
2017-08-18T20:31:02.285Z,3.97
2017-08-18T20:33:29.841Z,3.43
2017-08-18T20:35:57.345Z,5.37
2017-08-18T20:38:24.960Z,7.60
2017-08-18T20:40:52.496Z,2.87
2017-08-18T20:43:20.055Z,4.78
2017-08-18T20:45:51.296Z,6.30
2017-08-18T20:48:18.904Z,3.53
2017-08-18T20:50:46.423Z,5.73
2017-08-18T20:53:13.924Z,3.73
2017-08-18T20:55:41.420Z,7.03
2017-08-18T20:58:08.975Z,2.97
2017-08-18T21:00:37.412Z,3.30
2017-08-18T21:03:09.308Z,1.90
2017-08-18T21:05:36.813Z,2.73
2017-08-18T21:08:04.324Z,3.25
2017-08-18T21:10:32.651Z,4.10
2017-08-18T21:13:00.430Z,3.47
2017-08-18T21:15:27.960Z,2.10
2017-08-18T21:17:59.236Z,5.67
2017-08-18T21:20:26.777Z,2.30
2017-08-18T21:22:54.283Z,3.67
2017-08-18T21:25:21.832Z,3.27
2017-08-18T21:27:50.065Z,3.17
2017-08-18T21:30:17.581Z,3.40
2017-08-18T21:32:45.531Z,2.05
2017-08-18T21:35:18.005Z,2.57
2017-08-18T21:37:45.515Z,1.67
2017-08-18T21:40:13.444Z,2.10
2017-08-18T21:42:41.275Z,2.65
2017-08-18T21:45:09.219Z,1.73
2017-08-18T21:47:39.681Z,1.90
2017-08-18T21:50:07.192Z,4.10
2017-08-18T21:52:34.747Z,5.73
2017-08-18T21:55:02.274Z,3.67
2017-08-18T21:57:29.921Z,2.73
2017-08-18T21:59:57.440Z,3.00
2017-08-18T22:02:24.956Z,2.40
2017-08-18T22:04:58.171Z,4.55
2017-08-18T22:07:25.678Z,2.10
2017-08-18T22:09:54.012Z,5.03
2017-08-18T22:12:21.520Z,1.57
2017-08-18T22:14:49.027Z,3.93
2017-08-18T22:17:20.406Z,3.33
2017-08-18T22:19:48.518Z,2.45
2017-08-18T22:22:16.074Z,2.23
2017-08-18T22:24:43.575Z,2.97
2017-08-18T22:27:11.157Z,3.10
2017-08-18T22:29:38.723Z,1.73
2017-08-18T22:32:06.238Z,1.83
2017-08-18T22:34:33.743Z,5.03
2017-08-18T22:37:02.068Z,3.30
2017-08-18T22:39:29.576Z,1.63
2017-08-18T22:41:57.126Z,2.00
2017-08-18T22:44:24.630Z,1.50
2017-08-18T22:46:52.336Z,5.90
2017-08-18T22:49:19.843Z,2.50
2017-08-18T22:51:47.383Z,4.63
2017-08-18T22:54:15.888Z,8.73
2017-08-18T22:56:43.629Z,2.20
2017-08-18T22:59:11.147Z,2.20
2017-08-18T23:01:38.668Z,2.10
2017-08-18T23:04:10.498Z,3.83
2017-08-18T23:06:38.092Z,2.90
2017-08-18T23:09:05.761Z,1.83
2017-08-18T23:11:33.391Z,1.43
2017-08-18T23:14:01.383Z,2.97
2017-08-18T23:16:29.847Z,2.35
2017-08-18T23:19:02.230Z,2.87
2017-08-18T23:21:30.171Z,2.60
2017-08-18T23:23:57.723Z,1.83
2017-08-18T23:26:25.242Z,8.73
2017-08-18T23:28:52.782Z,2.85
2017-08-18T23:31:20.343Z,1.93
2017-08-18T23:33:47.856Z,2.50
2017-08-18T23:36:15.388Z,2.77
2017-08-18T23:38:42.936Z,4.70
2017-08-18T23:41:10.788Z,2.20
2017-08-18T23:43:38.667Z,2.22
2017-08-18T23:46:06.183Z,2.10
2017-08-18T23:48:33.719Z,2.47
2017-08-18T23:51:04.664Z,3.77
2017-08-18T23:53:32.223Z,2.70
2017-08-18T23:56:00.135Z,5.13
2017-08-18T23:58:28.007Z,1.90
